sensor_id;sensor_type;location;lat;lon;timestamp;pressure;altitude;pressure_sealevel;temperature;humidity
42671;BME280;28283;55.426;37.756;2023-03-01T00:04:43;98581.63;;;-4.57;54.68
42671;BME280;28283;55.426;37.756;2023-03-01T00:09:44;98573.19;;;-4.72;55.39
42671;BME280;28283;55.426;37.756;2023-03-01T00:14:46;98568.09;;;-4.85;55.91
42671;BME280;28283;55.426;37.756;2023-03-01T00:19:46;98567.84;;;-4.82;55.83
42671;BME280;28283;55.426;37.756;2023-03-01T00:24:47;98551.31;;;-4.94;56.42
42671;BME280;28283;55.426;37.756;2023-03-01T00:29:47;98526.00;;;-5.27;56.51
42671;BME280;28283;55.426;37.756;2023-03-01T00:34:48;98569.31;;;-5.12;56.97
42671;BME280;28283;55.426;37.756;2023-03-01T00:39:54;98557.44;;;-5.27;57.34
42671;BME280;28283;55.426;37.756;2023-03-01T00:44:55;98556.13;;;-5.22;57.30
42671;BME280;28283;55.426;37.756;2023-03-01T00:49:55;98557.91;;;-5.33;57.89
42671;BME280;28283;55.426;37.756;2023-03-01T00:54:56;98545.78;;;-5.34;58.20
42671;BME280;28283;55.426;37.756;2023-03-01T00:59:58;98543.75;;;-5.53;58.26
42671;BME280;28283;55.426;37.756;2023-03-01T01:04:58;98548.28;;;-5.56;58.26
42671;BME280;28283;55.426;37.756;2023-03-01T01:09:59;98546.47;;;-5.55;58.68
42671;BME280;28283;55.426;37.756;2023-03-01T01:15:00;98559.69;;;-5.57;58.72
42671;BME280;28283;55.426;37.756;2023-03-01T01:20:01;98531.94;;;-5.82;58.60
42671;BME280;28283;55.426;37.756;2023-03-01T01:25:02;98535.88;;;-5.76;58.91
42671;BME280;28283;55.426;37.756;2023-03-01T01:30:03;98555.66;;;-5.72;59.29
42671;BME280;28283;55.426;37.756;2023-03-01T01:35:04;98560.50;;;-5.79;59.31
42671;BME280;28283;55.426;37.756;2023-03-01T01:40:05;98548.25;;;-5.78;59.34
42671;BME280;28283;55.426;37.756;2023-03-01T01:50:29;98499.72;;;-6.05;59.22
42671;BME280;28283;55.426;37.756;2023-03-01T01:55:42;98537.78;;;-5.89;59.79
42671;BME280;28283;55.426;37.756;2023-03-01T02:00:43;98547.53;;;-5.80;59.60
42671;BME280;28283;55.426;37.756;2023-03-01T02:10:52;98539.44;;;-6.00;60.60
42671;BME280;28283;55.426;37.756;2023-03-01T02:15:54;98553.34;;;-6.10;60.89
42671;BME280;28283;55.426;37.756;2023-03-01T02:31:15;98541.44;;;-6.15;61.54
42671;BME280;28283;55.426;37.756;2023-03-01T02:36:40;98560.56;;;-6.14;62.01
42671;BME280;28283;55.426;37.756;2023-03-01T02:41:47;98548.41;;;-6.26;61.82
42671;BME280;28283;55.426;37.756;2023-03-01T02:46:53;98562.34;;;-6.26;61.87
42671;BME280;28283;55.426;37.756;2023-03-01T02:57:10;98557.41;;;-6.42;63.36
42671;BME280;28283;55.426;37.756;2023-03-01T03:02:19;98564.44;;;-6.42;63.74
42671;BME280;28283;55.426;37.756;2023-03-01T03:07:22;98563.06;;;-6.48;63.29
42671;BME280;28283;55.426;37.756;2023-03-01T03:12:23;98545.31;;;-6.67;63.86
42671;BME280;28283;55.426;37.756;2023-03-01T03:17:23;98556.97;;;-6.60;64.42
42671;BME280;28283;55.426;37.756;2023-03-01T03:22:24;98564.28;;;-6.76;64.31
42671;BME280;28283;55.426;37.756;2023-03-01T03:27:25;98522.78;;;-6.81;65.11
42671;BME280;28283;55.426;37.756;2023-03-01T03:32:25;98557.31;;;-6.64;64.49
42671;BME280;28283;55.426;37.756;2023-03-01T03:37:26;98558.09;;;-6.75;65.60
42671;BME280;28283;55.426;37.756;2023-03-01T03:42:45;98566.63;;;-6.73;65.31
42671;BME280;28283;55.426;37.756;2023-03-01T03:47:45;98550.97;;;-6.97;66.70
42671;BME280;28283;55.426;37.756;2023-03-01T03:52:46;98513.53;;;-7.22;67.16
42671;BME280;28283;55.426;37.756;2023-03-01T03:57:47;98585.94;;;-6.87;66.56
42671;BME280;28283;55.426;37.756;2023-03-01T04:02:51;98579.16;;;-6.89;66.62
42671;BME280;28283;55.426;37.756;2023-03-01T04:07:57;98580.53;;;-6.97;67.61
42671;BME280;28283;55.426;37.756;2023-03-01T04:13:10;98579.75;;;-7.10;68.25
42671;BME280;28283;55.426;37.756;2023-03-01T04:18:13;98577.22;;;-7.12;68.62
42671;BME280;28283;55.426;37.756;2023-03-01T04:23:17;98589.25;;;-7.22;68.94
42671;BME280;28283;55.426;37.756;2023-03-01T04:28:25;98581.31;;;-7.20;68.53
42671;BME280;28283;55.426;37.756;2023-03-01T04:33:26;98592.94;;;-7.24;69.61
42671;BME280;28283;55.426;37.756;2023-03-01T04:38:26;98549.53;;;-7.51;68.66
42671;BME280;28283;55.426;37.756;2023-03-01T04:43:27;98610.59;;;-7.28;70.01
42671;BME280;28283;55.426;37.756;2023-03-01T04:48:28;98594.94;;;-7.28;69.94
42671;BME280;28283;55.426;37.756;2023-03-01T04:53:29;98614.97;;;-7.29;69.59
42671;BME280;28283;55.426;37.756;2023-03-01T04:58:30;98566.47;;;-7.57;69.66
42671;BME280;28283;55.426;37.756;2023-03-01T05:03:31;98626.56;;;-7.33;70.86
42671;BME280;28283;55.426;37.756;2023-03-01T05:08:32;98621.56;;;-7.23;69.53
42671;BME280;28283;55.426;37.756;2023-03-01T05:13:36;98592.53;;;-7.44;70.12
42671;BME280;28283;55.426;37.756;2023-03-01T05:18:37;98619.97;;;-7.25;70.59
42671;BME280;28283;55.426;37.756;2023-03-01T05:23:38;98618.09;;;-7.23;70.41
42671;BME280;28283;55.426;37.756;2023-03-01T05:28:39;98616.09;;;-7.20;70.03
42671;BME280;28283;55.426;37.756;2023-03-01T05:33:40;98615.38;;;-7.22;70.99
42671;BME280;28283;55.426;37.756;2023-03-01T05:38:41;98629.50;;;-6.75;68.75
42671;BME280;28283;55.426;37.756;2023-03-01T05:43:42;98623.66;;;-6.78;69.91
42671;BME280;28283;55.426;37.756;2023-03-01T05:48:45;98634.13;;;-6.78;69.38
42671;BME280;28283;55.426;37.756;2023-03-01T05:53:45;98644.94;;;-6.72;69.27
42671;BME280;28283;55.426;37.756;2023-03-01T05:58:48;98634.44;;;-6.83;68.76
42671;BME280;28283;55.426;37.756;2023-03-01T06:03:48;98625.94;;;-6.74;69.40
42671;BME280;28283;55.426;37.756;2023-03-01T06:08:49;98651.28;;;-6.63;69.15
42671;BME280;28283;55.426;37.756;2023-03-01T06:13:53;98658.09;;;-6.36;68.36
42671;BME280;28283;55.426;37.756;2023-03-01T06:18:57;98647.75;;;-6.13;68.06
42671;BME280;28283;55.426;37.756;2023-03-01T06:23:58;98651.53;;;-5.71;66.83
42671;BME280;28283;55.426;37.756;2023-03-01T06:28:59;98672.53;;;-5.60;65.89
42671;BME280;28283;55.426;37.756;2023-03-01T06:33:59;98664.31;;;-5.55;66.00
42671;BME280;28283;55.426;37.756;2023-03-01T06:39:00;98645.19;;;-5.80;65.97
42671;BME280;28283;55.426;37.756;2023-03-01T06:44:00;98686.59;;;-5.49;64.81
42671;BME280;28283;55.426;37.756;2023-03-01T06:49:01;98655.75;;;-5.46;64.97
42671;BME280;28283;55.426;37.756;2023-03-01T06:54:04;98642.75;;;-5.59;65.25
42671;BME280;28283;55.426;37.756;2023-03-01T06:59:05;98689.59;;;-5.43;65.57
42671;BME280;28283;55.426;37.756;2023-03-01T07:04:06;98690.06;;;-5.49;64.32
42671;BME280;28283;55.426;37.756;2023-03-01T07:09:07;98695.75;;;-5.55;65.34
42671;BME280;28283;55.426;37.756;2023-03-01T07:14:07;98692.69;;;-5.49;64.66
42671;BME280;28283;55.426;37.756;2023-03-01T07:19:08;98695.81;;;-5.32;63.92
42671;BME280;28283;55.426;37.756;2023-03-01T07:24:08;98692.59;;;-5.25;63.95
42671;BME280;28283;55.426;37.756;2023-03-01T07:29:10;98691.59;;;-5.35;64.66
42671;BME280;28283;55.426;37.756;2023-03-01T07:34:11;98703.44;;;-5.18;63.96
42671;BME280;28283;55.426;37.756;2023-03-01T07:39:12;98693.78;;;-5.18;64.00
42671;BME280;28283;55.426;37.756;2023-03-01T07:44:12;98711.41;;;-5.31;63.76
42671;BME280;28283;55.426;37.756;2023-03-01T07:49:15;98725.81;;;-5.25;64.30
42671;BME280;28283;55.426;37.756;2023-03-01T07:54:16;98718.56;;;-4.99;63.45
42671;BME280;28283;55.426;37.756;2023-03-01T07:59:18;98729.53;;;-4.94;63.99
42671;BME280;28283;55.426;37.756;2023-03-01T08:04:18;98734.19;;;-4.64;63.23
42671;BME280;28283;55.426;37.756;2023-03-01T08:09:19;98736.22;;;-4.56;63.68
42671;BME280;28283;55.426;37.756;2023-03-01T08:14:20;98680.53;;;-4.60;62.21
42671;BME280;28283;55.426;37.756;2023-03-01T08:19:20;98733.94;;;-4.27;63.08
42671;BME280;28283;55.426;37.756;2023-03-01T08:24:21;98737.75;;;-4.19;60.93
42671;BME280;28283;55.426;37.756;2023-03-01T08:29:21;98747.25;;;-4.07;61.32
42671;BME280;28283;55.426;37.756;2023-03-01T08:34:22;98744.63;;;-4.18;62.07
42671;BME280;28283;55.426;37.756;2023-03-01T08:39:22;98731.00;;;-4.01;61.83
42671;BME280;28283;55.426;37.756;2023-03-01T08:44:23;98750.31;;;-3.91;61.16
42671;BME280;28283;55.426;37.756;2023-03-01T08:49:24;98722.78;;;-3.75;60.03
42671;BME280;28283;55.426;37.756;2023-03-01T08:54:25;98734.28;;;-3.88;61.52
42671;BME280;28283;55.426;37.756;2023-03-01T08:59:26;98720.97;;;-3.63;59.94
42671;BME280;28283;55.426;37.756;2023-03-01T09:24:15;98746.53;;;-3.12;58.15
42671;BME280;28283;55.426;37.756;2023-03-01T09:29:16;98745.22;;;-2.97;57.84
42671;BME280;28283;55.426;37.756;2023-03-01T09:34:16;98748.09;;;-3.00;58.31
42671;BME280;28283;55.426;37.756;2023-03-01T09:39:23;98722.66;;;-2.99;56.97
42671;BME280;28283;55.426;37.756;2023-03-01T09:44:26;98741.09;;;-2.90;58.13
42671;BME280;28283;55.426;37.756;2023-03-01T09:49:30;98710.44;;;-2.70;58.15
42671;BME280;28283;55.426;37.756;2023-03-01T09:54:32;98726.50;;;-2.42;57.05
42671;BME280;28283;55.426;37.756;2023-03-01T10:09:42;98734.19;;;-2.09;54.82
42671;BME280;28283;55.426;37.756;2023-03-01T10:20:22;98720.03;;;-2.08;55.02
42671;BME280;28283;55.426;37.756;2023-03-01T10:30:38;98761.75;;;-2.14;54.49
42671;BME280;28283;55.426;37.756;2023-03-01T10:35:39;98781.16;;;-2.15;55.24
42671;BME280;28283;55.426;37.756;2023-03-01T10:41:05;98772.16;;;-2.12;54.88
42671;BME280;28283;55.426;37.756;2023-03-01T10:51:29;98745.44;;;-2.07;55.38
42671;BME280;28283;55.426;37.756;2023-03-01T10:56:29;98774.53;;;-2.09;55.94
42671;BME280;28283;55.426;37.756;2023-03-01T11:01:46;98741.31;;;-2.41;56.96
42671;BME280;28283;55.426;37.756;2023-03-01T11:07:02;98777.19;;;-2.40;56.33
42671;BME280;28283;55.426;37.756;2023-03-01T11:12:05;98772.63;;;-2.38;56.61
42671;BME280;28283;55.426;37.756;2023-03-01T11:17:32;98779.84;;;-1.89;53.84
42671;BME280;28283;55.426;37.756;2023-03-01T11:22:35;98760.72;;;-1.92;54.05
42671;BME280;28283;55.426;37.756;2023-03-01T11:27:43;98725.78;;;-1.84;53.15
42671;BME280;28283;55.426;37.756;2023-03-01T11:38:27;98754.34;;;-2.39;54.12
42671;BME280;28283;55.426;37.756;2023-03-01T11:43:47;98791.38;;;-2.21;54.70
42671;BME280;28283;55.426;37.756;2023-03-01T11:48:58;98766.31;;;-2.16;54.55
42671;BME280;28283;55.426;37.756;2023-03-01T11:59:59;98805.50;;;-1.92;53.40
42671;BME280;28283;55.426;37.756;2023-03-01T12:05:40;98730.22;;;-1.75;52.02
42671;BME280;28283;55.426;37.756;2023-03-01T12:10:58;98794.72;;;-1.10;51.33
42671;BME280;28283;55.426;37.756;2023-03-01T12:16:30;98774.19;;;-1.07;50.11
42671;BME280;28283;55.426;37.756;2023-03-01T12:21:47;98809.56;;;-1.39;51.73
42671;BME280;28283;55.426;37.756;2023-03-01T12:27:16;98765.75;;;-1.40;51.44
42671;BME280;28283;55.426;37.756;2023-03-01T12:43:36;98801.81;;;-1.40;51.62
42671;BME280;28283;55.426;37.756;2023-03-01T12:48:53;98785.84;;;-1.68;52.30
42671;BME280;28283;55.426;37.756;2023-03-01T12:53:59;98806.22;;;-1.70;52.81
42671;BME280;28283;55.426;37.756;2023-03-01T13:04:36;98789.59;;;-1.61;52.58
42671;BME280;28283;55.426;37.756;2023-03-01T13:26:03;98795.75;;;-2.01;52.93
42671;BME280;28283;55.426;37.756;2023-03-01T13:31:06;98760.34;;;-2.18;53.58
42671;BME280;28283;55.426;37.756;2023-03-01T13:36:09;98784.47;;;-2.22;54.23
42671;BME280;28283;55.426;37.756;2023-03-01T13:41:12;98772.53;;;-2.26;53.29
42671;BME280;28283;55.426;37.756;2023-03-01T13:46:23;98781.91;;;-2.34;54.10
42671;BME280;28283;55.426;37.756;2023-03-01T13:51:28;98782.91;;;-2.35;53.03
42671;BME280;28283;55.426;37.756;2023-03-01T13:56:36;98767.91;;;-2.44;53.74
42671;BME280;28283;55.426;37.756;2023-03-01T14:01:37;98756.84;;;-2.69;54.73
42671;BME280;28283;55.426;37.756;2023-03-01T14:06:38;98765.88;;;-2.61;54.66
42671;BME280;28283;55.426;37.756;2023-03-01T14:21:43;98768.75;;;-2.95;56.36
42671;BME280;28283;55.426;37.756;2023-03-01T14:26:43;98770.94;;;-3.00;54.74
42671;BME280;28283;55.426;37.756;2023-03-01T14:31:44;98787.09;;;-3.26;55.80
42671;BME280;28283;55.426;37.756;2023-03-01T14:36:47;98779.19;;;-3.26;54.95
42671;BME280;28283;55.426;37.756;2023-03-01T14:41:48;98776.13;;;-3.31;56.29
42671;BME280;28283;55.426;37.756;2023-03-01T14:46:52;98798.38;;;-3.47;56.85
42671;BME280;28283;55.426;37.756;2023-03-01T14:52:00;98779.63;;;-3.42;55.97
42671;BME280;28283;55.426;37.756;2023-03-01T14:57:02;98775.59;;;-3.25;56.10
42671;BME280;28283;55.426;37.756;2023-03-01T15:02:03;98772.94;;;-3.14;55.61
42671;BME280;28283;55.426;37.756;2023-03-01T15:07:04;98784.59;;;-3.28;56.90
42671;BME280;28283;55.426;37.756;2023-03-01T15:17:38;98785.94;;;-3.33;58.53
42671;BME280;28283;55.426;37.756;2023-03-01T15:22:43;98749.91;;;-3.42;58.89
42671;BME280;28283;55.426;37.756;2023-03-01T15:27:51;98767.41;;;-3.32;58.58
42671;BME280;28283;55.426;37.756;2023-03-01T15:33:18;98778.19;;;-3.14;58.91
42671;BME280;28283;55.426;37.756;2023-03-01T15:38:36;98788.03;;;-3.27;59.74
42671;BME280;28283;55.426;37.756;2023-03-01T15:43:51;98772.66;;;-3.32;60.30
42671;BME280;28283;55.426;37.756;2023-03-01T15:49:01;98787.22;;;-3.28;60.44
42671;BME280;28283;55.426;37.756;2023-03-01T15:54:18;98791.38;;;-3.25;61.59
42671;BME280;28283;55.426;37.756;2023-03-01T15:59:20;98753.81;;;-3.16;60.69
42671;BME280;28283;55.426;37.756;2023-03-01T16:04:22;98765.25;;;-3.27;62.51
42671;BME280;28283;55.426;37.756;2023-03-01T16:09:25;98761.25;;;-3.21;63.77
42671;BME280;28283;55.426;37.756;2023-03-01T16:14:26;98769.19;;;-3.32;64.41
42671;BME280;28283;55.426;37.756;2023-03-01T16:19:28;98752.78;;;-3.24;64.13
42671;BME280;28283;55.426;37.756;2023-03-01T16:24:29;98721.16;;;-3.76;65.08
42671;BME280;28283;55.426;37.756;2023-03-01T16:29:30;98775.88;;;-3.28;65.24
42671;BME280;28283;55.426;37.756;2023-03-01T16:34:32;98761.06;;;-3.29;65.30
42671;BME280;28283;55.426;37.756;2023-03-01T16:39:38;98768.53;;;-3.46;66.49
42671;BME280;28283;55.426;37.756;2023-03-01T16:44:39;98769.13;;;-3.42;66.83
42671;BME280;28283;55.426;37.756;2023-03-01T16:49:40;98760.53;;;-3.44;66.78
42671;BME280;28283;55.426;37.756;2023-03-01T16:54:41;98744.66;;;-3.42;66.84
42671;BME280;28283;55.426;37.756;2023-03-01T16:59:42;98717.97;;;-3.38;66.97
42671;BME280;28283;55.426;37.756;2023-03-01T17:04:43;98746.69;;;-3.46;67.22
42671;BME280;28283;55.426;37.756;2023-03-01T17:09:43;98755.41;;;-3.46;67.87
42671;BME280;28283;55.426;37.756;2023-03-01T17:14:53;98728.72;;;-3.62;68.17
42671;BME280;28283;55.426;37.756;2023-03-01T17:19:55;98741.56;;;-3.48;67.49
42671;BME280;28283;55.426;37.756;2023-03-01T17:24:57;98738.06;;;-3.69;67.71
42671;BME280;28283;55.426;37.756;2023-03-01T17:29:58;98734.75;;;-3.71;68.22
42671;BME280;28283;55.426;37.756;2023-03-01T17:34:59;98711.19;;;-3.40;68.37
42671;BME280;28283;55.426;37.756;2023-03-01T17:40:00;98733.81;;;-3.49;69.01
42671;BME280;28283;55.426;37.756;2023-03-01T17:45:02;98733.16;;;-3.41;69.91
42671;BME280;28283;55.426;37.756;2023-03-01T17:50:03;98717.38;;;-3.62;71.06
42671;BME280;28283;55.426;37.756;2023-03-01T17:55:06;98714.91;;;-3.64;70.63
42671;BME280;28283;55.426;37.756;2023-03-01T18:00:13;98712.50;;;-3.67;70.95
42671;BME280;28283;55.426;37.756;2023-03-01T18:05:14;98719.41;;;-3.66;71.30
42671;BME280;28283;55.426;37.756;2023-03-01T18:10:15;98714.50;;;-3.59;70.63
42671;BME280;28283;55.426;37.756;2023-03-01T18:15:16;98696.13;;;-3.92;71.23
42671;BME280;28283;55.426;37.756;2023-03-01T18:20:17;98706.75;;;-3.61;70.32
42671;BME280;28283;55.426;37.756;2023-03-01T18:25:19;98687.59;;;-3.73;68.68
42671;BME280;28283;55.426;37.756;2023-03-01T18:30:21;98705.66;;;-3.58;68.58
42671;BME280;28283;55.426;37.756;2023-03-01T18:35:22;98698.75;;;-3.59;68.19
42671;BME280;28283;55.426;37.756;2023-03-01T18:40:23;98675.41;;;-3.53;67.72
42671;BME280;28283;55.426;37.756;2023-03-01T18:45:24;98686.88;;;-3.54;68.28
42671;BME280;28283;55.426;37.756;2023-03-01T18:50:24;98675.03;;;-3.69;68.45
42671;BME280;28283;55.426;37.756;2023-03-01T18:55:25;98678.06;;;-3.53;67.54
42671;BME280;28283;55.426;37.756;2023-03-01T19:00:26;98694.63;;;-3.73;67.90
42671;BME280;28283;55.426;37.756;2023-03-01T19:05:27;98670.28;;;-3.54;66.91
42671;BME280;28283;55.426;37.756;2023-03-01T19:10:28;98664.78;;;-3.72;67.47
42671;BME280;28283;55.426;37.756;2023-03-01T19:15:28;98683.47;;;-3.87;68.51
42671;BME280;28283;55.426;37.756;2023-03-01T19:20:29;98682.50;;;-3.65;68.24
42671;BME280;28283;55.426;37.756;2023-03-01T19:25:29;98662.91;;;-3.81;67.74
42671;BME280;28283;55.426;37.756;2023-03-01T19:30:30;98673.22;;;-3.69;68.18
42671;BME280;28283;55.426;37.756;2023-03-01T19:35:33;98661.84;;;-3.58;68.13
42671;BME280;28283;55.426;37.756;2023-03-01T19:40:35;98660.69;;;-3.65;68.44
42671;BME280;28283;55.426;37.756;2023-03-01T19:45:36;98663.69;;;-3.70;68.51
42671;BME280;28283;55.426;37.756;2023-03-01T19:50:36;98665.94;;;-3.65;68.45
42671;BME280;28283;55.426;37.756;2023-03-01T19:55:37;98663.56;;;-3.68;68.31
42671;BME280;28283;55.426;37.756;2023-03-01T20:00:38;98666.47;;;-3.71;68.59
42671;BME280;28283;55.426;37.756;2023-03-01T20:05:40;98650.50;;;-3.79;69.28
42671;BME280;28283;55.426;37.756;2023-03-01T20:10:42;98643.31;;;-3.77;68.92
42671;BME280;28283;55.426;37.756;2023-03-01T20:15:42;98651.69;;;-3.62;68.65
42671;BME280;28283;55.426;37.756;2023-03-01T20:20:48;98627.75;;;-3.69;69.14
42671;BME280;28283;55.426;37.756;2023-03-01T20:25:49;98627.81;;;-3.59;69.24
42671;BME280;28283;55.426;37.756;2023-03-01T20:30:50;98624.69;;;-3.74;69.86
42671;BME280;28283;55.426;37.756;2023-03-01T20:35:51;98632.13;;;-3.58;68.70
42671;BME280;28283;55.426;37.756;2023-03-01T20:41:09;98627.81;;;-3.80;70.19
42671;BME280;28283;55.426;37.756;2023-03-01T20:46:11;98608.09;;;-3.75;70.72
42671;BME280;28283;55.426;37.756;2023-03-01T20:51:12;98635.31;;;-3.76;70.92
42671;BME280;28283;55.426;37.756;2023-03-01T20:56:13;98625.75;;;-3.77;71.40
42671;BME280;28283;55.426;37.756;2023-03-01T21:01:17;98620.97;;;-3.93;71.67
42671;BME280;28283;55.426;37.756;2023-03-01T21:23:23;98613.59;;;-3.99;74.91
42671;BME280;28283;55.426;37.756;2023-03-01T21:28:23;98612.94;;;-4.12;75.42
42671;BME280;28283;55.426;37.756;2023-03-01T21:33:24;98570.97;;;-4.56;76.42
42671;BME280;28283;55.426;37.756;2023-03-01T21:38:24;98620.94;;;-4.14;76.97
42671;BME280;28283;55.426;37.756;2023-03-01T21:43:25;98631.72;;;-4.28;77.70
42671;BME280;28283;55.426;37.756;2023-03-01T21:48:25;98629.44;;;-4.22;78.58
42671;BME280;28283;55.426;37.756;2023-03-01T21:53:28;98628.06;;;-4.37;78.76
42671;BME280;28283;55.426;37.756;2023-03-01T21:58:29;98614.28;;;-4.29;78.56
42671;BME280;28283;55.426;37.756;2023-03-01T22:03:30;98595.41;;;-4.44;79.64
42671;BME280;28283;55.426;37.756;2023-03-01T22:08:31;98599.69;;;-4.43;80.28
42671;BME280;28283;55.426;37.756;2023-03-01T22:13:31;98610.97;;;-4.31;79.68
42671;BME280;28283;55.426;37.756;2023-03-01T22:18:32;98601.94;;;-4.38;nan
42671;BME280;28283;55.426;37.756;2023-03-01T22:23:33;98629.75;;;-4.15;79.42
42671;BME280;28283;55.426;37.756;2023-03-01T22:28:34;98619.13;;;-4.13;78.53
42671;BME280;28283;55.426;37.756;2023-03-01T22:33:35;98614.09;;;-4.05;79.02
42671;BME280;28283;55.426;37.756;2023-03-01T22:38:35;98604.38;;;-3.72;77.72
42671;BME280;28283;55.426;37.756;2023-03-01T22:43:36;98606.50;;;-3.87;77.69
42671;BME280;28283;55.426;37.756;2023-03-01T22:48:36;98614.50;;;-3.89;78.15
42671;BME280;28283;55.426;37.756;2023-03-01T22:53:37;98627.09;;;-4.04;78.12
42671;BME280;28283;55.426;37.756;2023-03-01T22:58:38;98613.63;;;-4.10;78.30
42671;BME280;28283;55.426;37.756;2023-03-01T23:03:38;98622.16;;;-3.97;78.50
42671;BME280;28283;55.426;37.756;2023-03-01T23:08:39;98640.53;;;-4.18;78.80
42671;BME280;28283;55.426;37.756;2023-03-01T23:13:40;98629.56;;;-4.02;78.83
42671;BME280;28283;55.426;37.756;2023-03-01T23:18:41;98639.94;;;-4.22;79.64
42671;BME280;28283;55.426;37.756;2023-03-01T23:23:42;98636.09;;;-4.17;79.83
42671;BME280;28283;55.426;37.756;2023-03-01T23:28:44;98619.94;;;-4.01;79.21
42671;BME280;28283;55.426;37.756;2023-03-01T23:33:45;98601.16;;;-4.50;79.51
42671;BME280;28283;55.426;37.756;2023-03-01T23:38:48;98650.56;;;-4.02;79.22
42671;BME280;28283;55.426;37.756;2023-03-01T23:43:51;98618.03;;;-4.32;79.98
42671;BME280;28283;55.426;37.756;2023-03-01T23:48:53;98614.41;;;-4.19;79.52
42671;BME280;28283;55.426;37.756;2023-03-01T23:54:00;98623.63;;;-4.25;80.33
42671;BME280;28283;55.426;37.756;2023-03-01T23:59:03;98630.66;;;-4.37;79.94
